Puli — TCSN7 — position and weather

sailwx.info

Track history (hours):
 
Tides and Currents Weather Stations Pressure Air Temp Water Temp Dewpoint Dewpoint Depression Visibility Wind Speed Wind Dir Waves Ship Positions

Puli

Last reported at 2015-Jul-26 04:32 UTC. Time now 2015-Aug-01 03:35 UTC.
Position N 54°41' E 013°60'.

Length 148 m; draft 6.5 m.

Type: Tanker. MMSI: 271000927.

Date/timePositionNaut miles runAvg speedWind from/ knotsBaromVisibWave heightAir tempDewpointWater temp
2015-Jul-26 04:32N 54°41' E 013°60'63 7.8
2015-Jul-25 20:33N 54°28' E 012°14'8 7.7
2015-Jul-25 19:34N 54°24' E 012°03'9 8.7
2015-Jul-25 18:33N 54°25' E 011°48'8 8.3
2015-Jul-25 17:33N 54°29' E 011°35'8 8.0
2015-Jul-25 16:33N 54°32' E 011°22'8 7.6
2015-Jul-25 15:33N 54°35' E 011°10'8 7.7
2015-Jul-25 14:33N 54°35' E 010°57'1111.3
2015-Jul-25 13:33N 54°34' E 010°38'1111.3
2015-Jul-25 12:34N 54°30' E 010°19'10 9.6
2015-Jul-25 11:33N 54°22' E 010°10'2 1.6
2015-Jul-25 10:33N 54°22' E 010°08'4 3.9
2015-Jul-25 09:33N 54°22' E 010°01'6 5.6
2015-Jul-25 08:33N 54°22' E 009°51'7 7.3
2015-Jul-25 07:33N 54°18' E 009°41'4 4.4
2015-Jul-25 06:33N 54°14' E 009°37'6 6.1
2015-Jul-25 05:34N 54°11' E 009°28'7 7.1
2015-Jul-25 04:33N 54°06' E 009°20'8 7.7
2015-Jul-25 03:33N 53°58' E 009°16'5 4.6
2015-Jul-25 02:33N 53°55' E 009°11'0 0.0
2015-Jul-25 01:33N 53°55' E 009°11'0 0.0
2015-Jul-25 00:32N 53°55' E 009°11'0 0.0
2015-Jul-24 23:33N 53°55' E 009°11'2 1.7
2015-Jul-24 22:33N 53°54' E 009°09'0 0.2
2015-Jul-24 21:33N 53°54' E 009°08'1 1.4
2015-Jul-24 20:34N 53°53' E 009°06'2 1.6
2015-Jul-24 19:33N 53°53' E 009°04'0 0.2
2015-Jul-24 18:33N 53°53' E 009°04'0 0.1
2015-Jul-24 17:33N 53°53' E 009°04'0 0.0
2015-Jul-24 16:33N 53°53' E 009°04'0 0.0
2015-Jul-24 15:34N 53°53' E 009°04'2 1.7
2015-Jul-24 14:33N 53°51' E 009°02'1211.8
2015-Jul-24 13:33N 53°54' E 008°42'1212.3
2015-Jul-24 12:33N 53°59' E 008°23'1312.2
2015-Jul-24 11:30N 53°59' E 008°01'1112.1
2015-Jul-24 10:33N 53°57' E 007°42'1111.1
2015-Jul-24 09:34N 54°06' E 007°31'10 9.9
2015-Jul-24 08:33N 54°09' E 007°15'1111.3
2015-Jul-24 07:33N 54°09' E 006°55'3611.6
2015-Jul-24 04:27N 54°07' E 005°54'1112.1
2015-Jul-24 03:33N 54°05' E 005°36'1212.3
2015-Jul-24 02:33N 54°03' E 005°15'1312.6
2015-Jul-24 01:30N 54°01' E 004°53'2412.4
2015-Jul-23 23:33N 53°46' E 004°21'1312.8
2015-Jul-23 22:32N 53°38' E 004°03'14311.0
2015-Jul-23 09:33N 51°31' E 002°14'1010.1
2015-Jul-23 08:33N 51°23' E 002°04'1111.4
2015-Jul-23 07:34N 51°15' E 001°52'1010.4
2015-Jul-23 06:34N 51°07' E 001°41'1211.7
2015-Jul-23 05:34N 50°58' E 001°29'  
2015-Jul-17 22:17N 30°59' W 014°47'911.7
2015-Jul-17 21:29N 30°50' W 014°45'1111.4
2015-Jul-17 20:32N 30°40' W 014°42'1310.7
2015-Jul-17 19:21N 30°27' W 014°44'910.9
2015-Jul-17 18:34N 30°19' W 014°46'1111.1
2015-Jul-17 17:34N 30°08' W 014°49'1111.1
2015-Jul-17 16:33N 29°57' W 014°52'1111.2
2015-Jul-17 15:33N 29°46' W 014°55'1111.3
2015-Jul-17 14:33N 29°35' W 014°58'1111.3
2015-Jul-17 13:33N 29°24' W 014°60'1111.4
2015-Jul-17 12:33N 29°13' W 015°03'1511.3
2015-Jul-17 11:15N 28°58' W 015°07'811.5
2015-Jul-17 10:32N 28°50' W 015°09'1111.3
2015-Jul-17 09:33N 28°40' W 015°12'1111.4
2015-Jul-17 08:33N 28°29' W 015°15'1111.4
2015-Jul-17 07:33N 28°18' W 015°18'1110.6
2015-Jul-17 06:33N 28°08' W 015°24'0 0.1
2015-Jul-17 05:33N 28°08' W 015°24'0 0.0
2015-Jul-17 04:34N 28°08' W 015°24'0 0.0
2015-Jul-17 03:34N 28°08' W 015°24'0 0.0
2015-Jul-17 02:33N 28°08' W 015°24'0 0.0
2015-Jul-17 01:34N 28°08' W 015°24'0 0.0
2015-Jul-17 00:34N 28°08' W 015°24'0 0.0
2015-Jul-16 23:34N 28°08' W 015°24'0 0.0
2015-Jul-16 22:33N 28°08' W 015°24'0 0.0
2015-Jul-16 21:33N 28°08' W 015°24'0 0.0
2015-Jul-16 20:33N 28°08' W 015°24'0 0.0
2015-Jul-16 19:33N 28°08' W 015°24'3 2.9
2015-Jul-16 18:33N 28°06' W 015°22'8 8.0
2015-Jul-16 17:33N 27°59' W 015°17'1111.0
2015-Jul-16 16:32N 27°48' W 015°19'2611.2
2015-Jul-16 14:11N 27°23' W 015°26'  
Track history (hours):
 
Tides and Currents Weather Stations Pressure Air Temp Water Temp Dewpoint Dewpoint Depression Visibility Wind Speed Wind Dir Waves Ship Positions

Puli

Last reported at 2015-Jul-26 04:32 UTC. Time now 2015-Aug-01 03:35 UTC.
Position N 54°41' E 013°60'.

Length 148 m; draft 6.5 m.

Type: Tanker. MMSI: 271000927.

Date/timePositionNaut miles runAvg speedWind from/ knotsBaromVisibWave heightAir tempDewpointWater temp
2015-Jul-26 04:32N 54°41' E 013°60'63 7.8
2015-Jul-25 20:33N 54°28' E 012°14'8 7.7
2015-Jul-25 19:34N 54°24' E 012°03'9 8.7
2015-Jul-25 18:33N 54°25' E 011°48'8 8.3
2015-Jul-25 17:33N 54°29' E 011°35'8 8.0
2015-Jul-25 16:33N 54°32' E 011°22'8 7.6
2015-Jul-25 15:33N 54°35' E 011°10'8 7.7
2015-Jul-25 14:33N 54°35' E 010°57'1111.3
2015-Jul-25 13:33N 54°34' E 010°38'1111.3
2015-Jul-25 12:34N 54°30' E 010°19'10 9.6
2015-Jul-25 11:33N 54°22' E 010°10'2 1.6
2015-Jul-25 10:33N 54°22' E 010°08'4 3.9
2015-Jul-25 09:33N 54°22' E 010°01'6 5.6
2015-Jul-25 08:33N 54°22' E 009°51'7 7.3
2015-Jul-25 07:33N 54°18' E 009°41'4 4.4
2015-Jul-25 06:33N 54°14' E 009°37'6 6.1
2015-Jul-25 05:34N 54°11' E 009°28'7 7.1
2015-Jul-25 04:33N 54°06' E 009°20'8 7.7
2015-Jul-25 03:33N 53°58' E 009°16'5 4.6
2015-Jul-25 02:33N 53°55' E 009°11'0 0.0
2015-Jul-25 01:33N 53°55' E 009°11'0 0.0
2015-Jul-25 00:32N 53°55' E 009°11'0 0.0
2015-Jul-24 23:33N 53°55' E 009°11'2 1.7
2015-Jul-24 22:33N 53°54' E 009°09'0 0.2
2015-Jul-24 21:33N 53°54' E 009°08'1 1.4
2015-Jul-24 20:34N 53°53' E 009°06'2 1.6
2015-Jul-24 19:33N 53°53' E 009°04'0 0.2
2015-Jul-24 18:33N 53°53' E 009°04'0 0.1
2015-Jul-24 17:33N 53°53' E 009°04'0 0.0
2015-Jul-24 16:33N 53°53' E 009°04'0 0.0
2015-Jul-24 15:34N 53°53' E 009°04'2 1.7
2015-Jul-24 14:33N 53°51' E 009°02'1211.8
2015-Jul-24 13:33N 53°54' E 008°42'1212.3
2015-Jul-24 12:33N 53°59' E 008°23'1312.2
2015-Jul-24 11:30N 53°59' E 008°01'1112.1
2015-Jul-24 10:33N 53°57' E 007°42'1111.1
2015-Jul-24 09:34N 54°06' E 007°31'10 9.9
2015-Jul-24 08:33N 54°09' E 007°15'1111.3
2015-Jul-24 07:33N 54°09' E 006°55'3611.6
2015-Jul-24 04:27N 54°07' E 005°54'1112.1
2015-Jul-24 03:33N 54°05' E 005°36'1212.3
2015-Jul-24 02:33N 54°03' E 005°15'1312.6
2015-Jul-24 01:30N 54°01' E 004°53'2412.4
2015-Jul-23 23:33N 53°46' E 004°21'1312.8
2015-Jul-23 22:32N 53°38' E 004°03'14311.0
2015-Jul-23 09:33N 51°31' E 002°14'1010.1
2015-Jul-23 08:33N 51°23' E 002°04'1111.4
2015-Jul-23 07:34N 51°15' E 001°52'1010.4
2015-Jul-23 06:34N 51°07' E 001°41'1211.7
2015-Jul-23 05:34N 50°58' E 001°29'  
2015-Jul-17 22:17N 30°59' W 014°47'911.7
2015-Jul-17 21:29N 30°50' W 014°45'1111.4
2015-Jul-17 20:32N 30°40' W 014°42'1310.7
2015-Jul-17 19:21N 30°27' W 014°44'910.9
2015-Jul-17 18:34N 30°19' W 014°46'1111.1
2015-Jul-17 17:34N 30°08' W 014°49'1111.1
2015-Jul-17 16:33N 29°57' W 014°52'1111.2
2015-Jul-17 15:33N 29°46' W 014°55'1111.3
2015-Jul-17 14:33N 29°35' W 014°58'1111.3
2015-Jul-17 13:33N 29°24' W 014°60'1111.4
2015-Jul-17 12:33N 29°13' W 015°03'1511.3
2015-Jul-17 11:15N 28°58' W 015°07'811.5
2015-Jul-17 10:32N 28°50' W 015°09'1111.3
2015-Jul-17 09:33N 28°40' W 015°12'1111.4
2015-Jul-17 08:33N 28°29' W 015°15'1111.4
2015-Jul-17 07:33N 28°18' W 015°18'1110.6
2015-Jul-17 06:33N 28°08' W 015°24'0 0.1
2015-Jul-17 05:33N 28°08' W 015°24'0 0.0
2015-Jul-17 04:34N 28°08' W 015°24'0 0.0
2015-Jul-17 03:34N 28°08' W 015°24'0 0.0
2015-Jul-17 02:33N 28°08' W 015°24'0 0.0
2015-Jul-17 01:34N 28°08' W 015°24'0 0.0
2015-Jul-17 00:34N 28°08' W 015°24'0 0.0
2015-Jul-16 23:34N 28°08' W 015°24'0 0.0
2015-Jul-16 22:33N 28°08' W 015°24'0 0.0
2015-Jul-16 21:33N 28°08' W 015°24'0 0.0
2015-Jul-16 20:33N 28°08' W 015°24'0 0.0
2015-Jul-16 19:33N 28°08' W 015°24'3 2.9
2015-Jul-16 18:33N 28°06' W 015°22'8 8.0
2015-Jul-16 17:33N 27°59' W 015°17'1111.0
2015-Jul-16 16:32N 27°48' W 015°19'2611.2
2015-Jul-16 14:11N 27°23' W 015°26'  

Dump ship's entire track history